This is the latest recevied weather packets stored in our database for station/object YO8RBY-2. If no packets are shown the sender has not sent any weather packets the latest 10 day(s).
| Time | Temp. | Humidity | Pressure | Rain* | Wind** | Luminosity | Snow |
|---|---|---|---|---|---|---|---|
| 1777935036 | 16.11° C | 37% | 973 hPa | - | - | 0 W/m² | - |
| 1777933212 | 16.67° C | 38% | 973 hPa | - | - | 0 W/m² | - |
| 1777920443 | 20.56° C | 30% | 973 hPa | - | - | 0 W/m² | - |
| 1777918619 | 22.78° C | 27% | 972 hPa | - | - | 0 W/m² | - |
| 1777916795 | 26.67° C | 23% | 972 hPa | - | - | 0 W/m² | - |
| 1777914970 | 33.33° C | 15% | 972 hPa | - | - | 0 W/m² | - |
| 1777913152 | 46.11° C | 7% | 971 hPa | - | - | 0 W/m² | - |
| 1777911338 | 61.67° C | 2% | 971 hPa | - | - | 0 W/m² | - |
| 1777909498 | 57.22° C | 3% | 971 hPa | - | - | 0 W/m² | - |
| 1777907674 | 51.67° C | 5% | 971 hPa | - | - | 0 W/m² | - |
| 1777905850 | 39.44° C | 10% | 971 hPa | - | - | 0 W/m² | - |
| 1777904026 | 37.78° C | 10% | 972 hPa | - | - | 0 W/m² | - |
| 1777902208 | 35.56° C | 11% | 972 hPa | - | - | 0 W/m² | - |
| 1777900377 | 36.11° C | 12% | 972 hPa | - | - | 0 W/m² | - |
| 1777898564 | 35° C | 14% | 972 hPa | - | - | 0 W/m² | - |
| 1777894909 | 33.33° C | 14% | 973 hPa | - | - | 0 W/m² | - |
| 1777887077 | 27.78° C | 20% | 974 hPa | - | - | 0 W/m² | - |
| 1777885239 | 25° C | 27% | 974 hPa | - | - | 0 W/m² | - |
| 1777872816 | 20° C | 34% | 974 hPa | - | - | 0 W/m² | - |
| 1777867342 | 15° C | 38% | 974 hPa | - | - | 0 W/m² | - |
| 1777865518 | 15° C | 39% | 974 hPa | - | - | 0 W/m² | - |
| 1777861870 | 14.44° C | 40% | 975 hPa | - | - | 0 W/m² | - |
| 1777860063 | 13.89° C | 41% | 975 hPa | - | - | 0 W/m² | - |
| 1777858225 | 13.89° C | 41% | 974 hPa | - | - | 0 W/m² | - |
| 1777856398 | 14.44° C | 40% | 974 hPa | - | - | 0 W/m² | - |
* Rain since midnight (hover to see other rain measurements)
** Current wind speed in m/s (hover to see current wind gust speed)